sensor_id;sensor_type;location;lat;lon;timestamp;pressure;altitude;pressure_sealevel;temperature
70389;BMP280;58659;49.050;8.530;2022-09-16T00:02:05;98873.41;;;14.44
70389;BMP280;58659;49.050;8.530;2022-09-16T00:04:30;98859.81;;;14.49
70389;BMP280;58659;49.050;8.530;2022-09-16T00:06:55;98857.63;;;14.44
70389;BMP280;58659;49.050;8.530;2022-09-16T00:09:20;98873.53;;;14.34
70389;BMP280;58659;49.050;8.530;2022-09-16T00:11:46;98883.75;;;14.28
70389;BMP280;58659;49.050;8.530;2022-09-16T00:14:11;98875.09;;;14.31
70389;BMP280;58659;49.050;8.530;2022-09-16T00:16:36;98868.41;;;14.27
70389;BMP280;58659;49.050;8.530;2022-09-16T00:19:01;98863.25;;;14.19
70389;BMP280;58659;49.050;8.530;2022-09-16T00:21:27;98853.81;;;14.22
70389;BMP280;58659;49.050;8.530;2022-09-16T00:23:53;98847.41;;;14.23
70389;BMP280;58659;49.050;8.530;2022-09-16T00:26:19;98850.88;;;14.16
70389;BMP280;58659;49.050;8.530;2022-09-16T00:28:46;98845.94;;;14.22
70389;BMP280;58659;49.050;8.530;2022-09-16T00:31:11;98840.56;;;14.33
70389;BMP280;58659;49.050;8.530;2022-09-16T00:33:37;98842.00;;;14.34
70389;BMP280;58659;49.050;8.530;2022-09-16T00:38:35;98857.78;;;14.34
70389;BMP280;58659;49.050;8.530;2022-09-16T00:41:00;98866.06;;;14.32
70389;BMP280;58659;49.050;8.530;2022-09-16T00:43:25;98873.25;;;14.28
70389;BMP280;58659;49.050;8.530;2022-09-16T00:46:00;98895.44;;;14.23
70389;BMP280;58659;49.050;8.530;2022-09-16T00:48:27;98900.00;;;14.19
70389;BMP280;58659;49.050;8.530;2022-09-16T00:50:55;98919.22;;;14.13
70389;BMP280;58659;49.050;8.530;2022-09-16T00:53:26;98919.69;;;14.08
70389;BMP280;58659;49.050;8.530;2022-09-16T00:55:52;98912.47;;;14.12
70389;BMP280;58659;49.050;8.530;2022-09-16T01:00:43;98874.41;;;14.27
70389;BMP280;58659;49.050;8.530;2022-09-16T01:03:09;98866.81;;;14.33
70389;BMP280;58659;49.050;8.530;2022-09-16T01:05:34;98864.03;;;14.43
70389;BMP280;58659;49.050;8.530;2022-09-16T01:08:01;98853.06;;;14.48
70389;BMP280;58659;49.050;8.530;2022-09-16T01:10:26;98869.66;;;14.45
70389;BMP280;58659;49.050;8.530;2022-09-16T01:12:56;98885.97;;;14.33
70389;BMP280;58659;49.050;8.530;2022-09-16T01:15:27;98871.88;;;14.20
70389;BMP280;58659;49.050;8.530;2022-09-16T01:33:03;98833.19;;;13.63
70389;BMP280;58659;49.050;8.530;2022-09-16T01:45:59;98833.75;;;13.14
70389;BMP280;58659;49.050;8.530;2022-09-16T01:48:39;98866.03;;;13.04
70389;BMP280;58659;49.050;8.530;2022-09-16T01:56:13;98974.88;;;12.71
70389;BMP280;58659;49.050;8.530;2022-09-16T02:01:11;99058.06;;;12.42
70389;BMP280;58659;49.050;8.530;2022-09-16T02:03:39;99110.81;;;12.44
70389;BMP280;58659;49.050;8.530;2022-09-16T02:06:07;99131.38;;;12.49
70389;BMP280;58659;49.050;8.530;2022-09-16T02:11:18;99078.25;;;12.60
70389;BMP280;58659;49.050;8.530;2022-09-16T02:16:15;99096.97;;;12.54
70389;BMP280;58659;49.050;8.530;2022-09-16T02:18:42;99105.16;;;12.56
70389;BMP280;58659;49.050;8.530;2022-09-16T02:21:10;99113.03;;;12.56
70389;BMP280;58659;49.050;8.530;2022-09-16T02:23:39;99127.63;;;12.57
70389;BMP280;58659;49.050;8.530;2022-09-16T02:26:07;99105.16;;;12.64
70389;BMP280;58659;49.050;8.530;2022-09-16T02:28:34;99069.19;;;12.75
70389;BMP280;58659;49.050;8.530;2022-09-16T02:31:04;99052.69;;;12.85
70389;BMP280;58659;49.050;8.530;2022-09-16T02:33:35;99042.88;;;12.92
70389;BMP280;58659;49.050;8.530;2022-09-16T02:36:02;99072.84;;;12.91
70389;BMP280;58659;49.050;8.530;2022-09-16T02:38:36;99098.34;;;12.91
70389;BMP280;58659;49.050;8.530;2022-09-16T02:41:04;99076.63;;;12.90
70389;BMP280;58659;49.050;8.530;2022-09-16T02:43:29;99058.94;;;12.98
70389;BMP280;58659;49.050;8.530;2022-09-16T02:53:58;99027.69;;;13.28
70389;BMP280;58659;49.050;8.530;2022-09-16T02:56:28;99039.69;;;13.26
70389;BMP280;58659;49.050;8.530;2022-09-16T02:58:54;99042.03;;;13.13
70389;BMP280;58659;49.050;8.530;2022-09-16T03:01:20;99015.00;;;13.16
70389;BMP280;58659;49.050;8.530;2022-09-16T03:03:46;99002.31;;;13.15
70389;BMP280;58659;49.050;8.530;2022-09-16T03:06:15;99017.69;;;13.09
70389;BMP280;58659;49.050;8.530;2022-09-16T03:08:41;98993.28;;;13.19
70389;BMP280;58659;49.050;8.530;2022-09-16T03:11:12;98994.41;;;13.18
70389;BMP280;58659;49.050;8.530;2022-09-16T03:13:53;98999.28;;;13.16
70389;BMP280;58659;49.050;8.530;2022-09-16T03:21:32;98973.53;;;13.07
70389;BMP280;58659;49.050;8.530;2022-09-16T03:24:10;98976.84;;;13.15
70389;BMP280;58659;49.050;8.530;2022-09-16T03:34:44;98965.19;;;13.16
70389;BMP280;58659;49.050;8.530;2022-09-16T03:37:10;98957.31;;;13.16
70389;BMP280;58659;49.050;8.530;2022-09-16T03:39:37;98945.38;;;13.15
70389;BMP280;58659;49.050;8.530;2022-09-16T03:42:02;98936.78;;;13.11
70389;BMP280;58659;49.050;8.530;2022-09-16T03:44:35;98934.56;;;13.06
70389;BMP280;58659;49.050;8.530;2022-09-16T03:47:01;98926.34;;;13.07
70389;BMP280;58659;49.050;8.530;2022-09-16T03:49:26;98905.69;;;13.09
70389;BMP280;58659;49.050;8.530;2022-09-16T03:51:51;98872.78;;;13.05
70389;BMP280;58659;49.050;8.530;2022-09-16T03:54:16;98842.06;;;13.05
70389;BMP280;58659;49.050;8.530;2022-09-16T03:56:41;98822.22;;;13.04
70389;BMP280;58659;49.050;8.530;2022-09-16T03:59:07;98794.19;;;13.01
70389;BMP280;58659;49.050;8.530;2022-09-16T04:01:32;98781.69;;;13.13
70389;BMP280;58659;49.050;8.530;2022-09-16T04:03:57;98766.28;;;13.18
70389;BMP280;58659;49.050;8.530;2022-09-16T04:06:22;98760.50;;;13.30
70389;BMP280;58659;49.050;8.530;2022-09-16T04:08:47;98751.56;;;13.28
70389;BMP280;58659;49.050;8.530;2022-09-16T04:11:14;98753.78;;;13.29
70389;BMP280;58659;49.050;8.530;2022-09-16T04:13:39;98745.44;;;13.38
70389;BMP280;58659;49.050;8.530;2022-09-16T04:16:05;98743.47;;;13.45
70389;BMP280;58659;49.050;8.530;2022-09-16T04:18:30;98737.44;;;13.48
70389;BMP280;58659;49.050;8.530;2022-09-16T04:20:56;98747.97;;;13.45
70389;BMP280;58659;49.050;8.530;2022-09-16T04:23:26;98750.88;;;13.50
70389;BMP280;58659;49.050;8.530;2022-09-16T04:25:57;98754.25;;;13.51
70389;BMP280;58659;49.050;8.530;2022-09-16T04:28:23;98760.69;;;13.46
70389;BMP280;58659;49.050;8.530;2022-09-16T04:30:48;98770.53;;;13.39
70389;BMP280;58659;49.050;8.530;2022-09-16T04:33:13;98769.94;;;13.24
70389;BMP280;58659;49.050;8.530;2022-09-16T04:35:39;98746.78;;;13.19
70389;BMP280;58659;49.050;8.530;2022-09-16T04:38:04;98722.47;;;13.15
70389;BMP280;58659;49.050;8.530;2022-09-16T04:40:29;98701.09;;;13.17
70389;BMP280;58659;49.050;8.530;2022-09-16T04:42:54;98702.88;;;13.23
70389;BMP280;58659;49.050;8.530;2022-09-16T04:45:19;98688.19;;;13.29
70389;BMP280;58659;49.050;8.530;2022-09-16T04:47:44;98689.25;;;13.35
70389;BMP280;58659;49.050;8.530;2022-09-16T04:50:10;98687.00;;;13.37
70389;BMP280;58659;49.050;8.530;2022-09-16T04:52:35;98690.38;;;13.38
70389;BMP280;58659;49.050;8.530;2022-09-16T04:55:01;98691.78;;;13.42
70389;BMP280;58659;49.050;8.530;2022-09-16T04:57:29;98695.56;;;13.41
70389;BMP280;58659;49.050;8.530;2022-09-16T04:59:54;98699.31;;;13.40
70389;BMP280;58659;49.050;8.530;2022-09-16T05:02:19;98718.03;;;13.42
70389;BMP280;58659;49.050;8.530;2022-09-16T05:04:44;98720.25;;;13.44
70389;BMP280;58659;49.050;8.530;2022-09-16T05:07:10;98723.94;;;13.50
70389;BMP280;58659;49.050;8.530;2022-09-16T05:09:35;98739.66;;;13.50
70389;BMP280;58659;49.050;8.530;2022-09-16T05:12:01;98747.91;;;13.48
70389;BMP280;58659;49.050;8.530;2022-09-16T05:14:26;98762.94;;;13.48
70389;BMP280;58659;49.050;8.530;2022-09-16T05:16:52;98781.66;;;13.50
70389;BMP280;58659;49.050;8.530;2022-09-16T05:19:18;98790.25;;;13.50
70389;BMP280;58659;49.050;8.530;2022-09-16T05:21:43;98801.13;;;13.49
70389;BMP280;58659;49.050;8.530;2022-09-16T05:24:08;98807.91;;;13.46
70389;BMP280;58659;49.050;8.530;2022-09-16T05:26:36;98810.53;;;13.46
70389;BMP280;58659;49.050;8.530;2022-09-16T05:29:02;98821.81;;;13.43
70389;BMP280;58659;49.050;8.530;2022-09-16T05:31:28;98809.75;;;13.49
70389;BMP280;58659;49.050;8.530;2022-09-16T05:36:20;98783.63;;;13.73
70389;BMP280;58659;49.050;8.530;2022-09-16T05:38:45;98801.72;;;13.63
70389;BMP280;58659;49.050;8.530;2022-09-16T05:41:10;98793.69;;;13.74
70389;BMP280;58659;49.050;8.530;2022-09-16T05:43:36;98829.88;;;13.59
70389;BMP280;58659;49.050;8.530;2022-09-16T05:46:02;98838.44;;;13.63
70389;BMP280;58659;49.050;8.530;2022-09-16T05:48:28;98848.56;;;13.65
70389;BMP280;58659;49.050;8.530;2022-09-16T05:50:57;98862.94;;;13.53
70389;BMP280;58659;49.050;8.530;2022-09-16T05:53:23;98909.09;;;13.06
70389;BMP280;58659;49.050;8.530;2022-09-16T05:58:24;98907.44;;;12.79
70389;BMP280;58659;49.050;8.530;2022-09-16T06:00:49;98874.53;;;12.71
70389;BMP280;58659;49.050;8.530;2022-09-16T06:03:14;98885.09;;;12.56
70389;BMP280;58659;49.050;8.530;2022-09-16T06:05:40;98863.00;;;12.65
70389;BMP280;58659;49.050;8.530;2022-09-16T06:08:05;98858.81;;;12.71
70389;BMP280;58659;49.050;8.530;2022-09-16T06:10:30;98869.75;;;12.62
70389;BMP280;58659;49.050;8.530;2022-09-16T06:12:55;98833.41;;;12.64
70389;BMP280;58659;49.050;8.530;2022-09-16T06:15:21;98837.91;;;12.67
70389;BMP280;58659;49.050;8.530;2022-09-16T06:17:46;98837.91;;;12.67
70389;BMP280;58659;49.050;8.530;2022-09-16T06:20:11;98836.84;;;12.61
70389;BMP280;58659;49.050;8.530;2022-09-16T06:22:38;98812.50;;;12.61
70389;BMP280;58659;49.050;8.530;2022-09-16T06:25:04;98796.78;;;12.61
70389;BMP280;58659;49.050;8.530;2022-09-16T06:27:30;98789.69;;;12.57
70389;BMP280;58659;49.050;8.530;2022-09-16T06:29:55;98789.34;;;12.55
70389;BMP280;58659;49.050;8.530;2022-09-16T06:32:21;98789.03;;;12.46
70389;BMP280;58659;49.050;8.530;2022-09-16T06:34:46;98782.66;;;12.47
70389;BMP280;58659;49.050;8.530;2022-09-16T06:37:11;98764.28;;;12.54
70389;BMP280;58659;49.050;8.530;2022-09-16T06:39:38;98737.66;;;12.60
70389;BMP280;58659;49.050;8.530;2022-09-16T06:42:05;98740.97;;;12.64
70389;BMP280;58659;49.050;8.530;2022-09-16T06:44:30;98734.53;;;12.72
70389;BMP280;58659;49.050;8.530;2022-09-16T06:46:56;98724.63;;;12.90
70389;BMP280;58659;49.050;8.530;2022-09-16T06:49:21;98722.34;;;12.95
70389;BMP280;58659;49.050;8.530;2022-09-16T06:51:46;98708.34;;;13.05
70389;BMP280;58659;49.050;8.530;2022-09-16T06:54:12;98714.88;;;13.24
70389;BMP280;58659;49.050;8.530;2022-09-16T06:56:37;98741.53;;;13.19
70389;BMP280;58659;49.050;8.530;2022-09-16T06:59:03;98759.75;;;13.30
70389;BMP280;58659;49.050;8.530;2022-09-16T07:01:29;98795.03;;;13.25
70389;BMP280;58659;49.050;8.530;2022-09-16T07:03:55;98814.09;;;13.29
70389;BMP280;58659;49.050;8.530;2022-09-16T07:06:21;98864.06;;;13.15
70389;BMP280;58659;49.050;8.530;2022-09-16T07:08:48;98881.53;;;13.32
70389;BMP280;58659;49.050;8.530;2022-09-16T07:11:14;98876.13;;;13.46
70389;BMP280;58659;49.050;8.530;2022-09-16T07:13:40;98889.53;;;13.55
70389;BMP280;58659;49.050;8.530;2022-09-16T07:16:06;98901.50;;;13.60
70389;BMP280;58659;49.050;8.530;2022-09-16T07:18:32;98918.09;;;13.46
70389;BMP280;58659;49.050;8.530;2022-09-16T07:21:08;98909.16;;;13.44
70389;BMP280;58659;49.050;8.530;2022-09-16T07:23:34;98904.94;;;13.53
70389;BMP280;58659;49.050;8.530;2022-09-16T07:26:19;98900.69;;;13.63
70389;BMP280;58659;49.050;8.530;2022-09-16T07:28:45;98922.28;;;13.78
70389;BMP280;58659;49.050;8.530;2022-09-16T07:31:12;98938.66;;;13.89
70389;BMP280;58659;49.050;8.530;2022-09-16T07:33:38;98928.53;;;14.17
70389;BMP280;58659;49.050;8.530;2022-09-16T07:36:04;98973.50;;;14.23
70389;BMP280;58659;49.050;8.530;2022-09-16T07:38:29;99028.56;;;14.34
70389;BMP280;58659;49.050;8.530;2022-09-16T07:40:55;99074.69;;;14.38
70389;BMP280;58659;49.050;8.530;2022-09-16T07:43:20;99048.94;;;14.56
70389;BMP280;58659;49.050;8.530;2022-09-16T07:45:46;99026.47;;;14.78
70389;BMP280;58659;49.050;8.530;2022-09-16T07:48:11;99084.56;;;14.88
70389;BMP280;58659;49.050;8.530;2022-09-16T07:50:36;99069.19;;;15.13
70389;BMP280;58659;49.050;8.530;2022-09-16T07:53:07;99122.47;;;15.20
70389;BMP280;58659;49.050;8.530;2022-09-16T07:55:33;99214.31;;;15.08
70389;BMP280;58659;49.050;8.530;2022-09-16T07:57:58;99197.25;;;14.89
70389;BMP280;58659;49.050;8.530;2022-09-16T08:00:24;99197.38;;;14.78
70389;BMP280;58659;49.050;8.530;2022-09-16T08:02:54;99206.94;;;14.62
70389;BMP280;58659;49.050;8.530;2022-09-16T08:05:19;99199.06;;;14.62
70389;BMP280;58659;49.050;8.530;2022-09-16T08:07:45;99162.97;;;14.66
70389;BMP280;58659;49.050;8.530;2022-09-16T08:10:10;99178.34;;;14.67
70389;BMP280;58659;49.050;8.530;2022-09-16T08:12:35;99201.63;;;14.65
70389;BMP280;58659;49.050;8.530;2022-09-16T08:15:00;99192.38;;;14.54
70389;BMP280;58659;49.050;8.530;2022-09-16T08:17:26;99206.75;;;14.42
70389;BMP280;58659;49.050;8.530;2022-09-16T08:19:51;99184.97;;;14.42
70389;BMP280;58659;49.050;8.530;2022-09-16T08:22:16;99181.59;;;14.41
70389;BMP280;58659;49.050;8.530;2022-09-16T08:24:41;99169.94;;;14.46
70389;BMP280;58659;49.050;8.530;2022-09-16T08:27:06;99149.56;;;14.53
70389;BMP280;58659;49.050;8.530;2022-09-16T08:29:32;99158.88;;;14.61
70389;BMP280;58659;49.050;8.530;2022-09-16T08:31:57;99182.53;;;14.58
70389;BMP280;58659;49.050;8.530;2022-09-16T08:34:22;99188.56;;;14.62
70389;BMP280;58659;49.050;8.530;2022-09-16T08:36:48;99144.47;;;14.73
70389;BMP280;58659;49.050;8.530;2022-09-16T08:39:13;99197.50;;;14.68
70389;BMP280;58659;49.050;8.530;2022-09-16T08:47:11;99211.03;;;14.66
70389;BMP280;58659;49.050;8.530;2022-09-16T08:49:38;99222.22;;;14.70
70389;BMP280;58659;49.050;8.530;2022-09-16T08:52:14;99214.72;;;14.72
70389;BMP280;58659;49.050;8.530;2022-09-16T08:54:44;99250.25;;;14.47
70389;BMP280;58659;49.050;8.530;2022-09-16T08:57:12;99222.56;;;14.35
70389;BMP280;58659;49.050;8.530;2022-09-16T08:59:39;99204.66;;;14.27
70389;BMP280;58659;49.050;8.530;2022-09-16T09:04:35;99193.41;;;14.22
70389;BMP280;58659;49.050;8.530;2022-09-16T09:07:10;99194.97;;;14.20
70389;BMP280;58659;49.050;8.530;2022-09-16T09:09:57;99205.09;;;14.18
70389;BMP280;58659;49.050;8.530;2022-09-16T09:12:34;99198.72;;;14.19
70389;BMP280;58659;49.050;8.530;2022-09-16T09:29:00;99200.16;;;14.27
70389;BMP280;58659;49.050;8.530;2022-09-16T09:41:44;99198.94;;;14.35
70389;BMP280;58659;49.050;8.530;2022-09-16T09:46:52;99211.38;;;14.31
70389;BMP280;58659;49.050;8.530;2022-09-16T09:49:40;99199.78;;;14.25
70389;BMP280;58659;49.050;8.530;2022-09-16T09:54:32;99171.00;;;14.11
70389;BMP280;58659;49.050;8.530;2022-09-16T09:57:11;99153.78;;;14.06
70389;BMP280;58659;49.050;8.530;2022-09-16T10:02:22;99135.72;;;14.12
70389;BMP280;58659;49.050;8.530;2022-09-16T10:04:48;99132.34;;;14.11
70389;BMP280;58659;49.050;8.530;2022-09-16T10:07:14;99124.38;;;14.22
70389;BMP280;58659;49.050;8.530;2022-09-16T10:09:46;99141.63;;;14.27
70389;BMP280;58659;49.050;8.530;2022-09-16T10:12:12;99152.50;;;14.25
70389;BMP280;58659;49.050;8.530;2022-09-16T10:14:38;99163.25;;;14.38
70389;BMP280;58659;49.050;8.530;2022-09-16T10:17:04;99157.00;;;14.58
70389;BMP280;58659;49.050;8.530;2022-09-16T10:19:39;99176.28;;;14.86
70389;BMP280;58659;49.050;8.530;2022-09-16T10:22:08;99236.81;;;14.78
70389;BMP280;58659;49.050;8.530;2022-09-16T10:24:35;99216.78;;;14.92
70389;BMP280;58659;49.050;8.530;2022-09-16T10:27:02;99238.94;;;14.91
70389;BMP280;58659;49.050;8.530;2022-09-16T10:29:40;99257.41;;;14.84
70389;BMP280;58659;49.050;8.530;2022-09-16T10:32:06;99277.00;;;14.75
70389;BMP280;58659;49.050;8.530;2022-09-16T10:34:35;99253.94;;;14.56
70389;BMP280;58659;49.050;8.530;2022-09-16T10:39:36;99248.59;;;14.63
70389;BMP280;58659;49.050;8.530;2022-09-16T10:42:03;99255.16;;;14.82
70389;BMP280;58659;49.050;8.530;2022-09-16T10:44:29;99252.66;;;15.09
70389;BMP280;58659;49.050;8.530;2022-09-16T10:47:02;99270.31;;;15.39
70389;BMP280;58659;49.050;8.530;2022-09-16T10:52:12;99357.31;;;16.62
70389;BMP280;58659;49.050;8.530;2022-09-16T10:54:38;99387.31;;;16.94
70389;BMP280;58659;49.050;8.530;2022-09-16T10:57:17;99440.09;;;17.14
70389;BMP280;58659;49.050;8.530;2022-09-16T11:00:16;99466.72;;;17.23
70389;BMP280;58659;49.050;8.530;2022-09-16T11:07:54;99442.03;;;16.90
70389;BMP280;58659;49.050;8.530;2022-09-16T11:18:23;99484.47;;;16.49
70389;BMP280;58659;49.050;8.530;2022-09-16T11:31:06;99486.06;;;17.59
70389;BMP280;58659;49.050;8.530;2022-09-16T11:46:19;99484.06;;;18.55
70389;BMP280;58659;49.050;8.530;2022-09-16T11:56:33;99492.38;;;20.47
70389;BMP280;58659;49.050;8.530;2022-09-16T11:59:03;99492.75;;;19.57
70389;BMP280;58659;49.050;8.530;2022-09-16T12:01:30;99491.56;;;19.17
70389;BMP280;58659;49.050;8.530;2022-09-16T12:04:16;99492.47;;;18.66
70389;BMP280;58659;49.050;8.530;2022-09-16T12:09:23;99470.31;;;19.87
70389;BMP280;58659;49.050;8.530;2022-09-16T12:11:51;99478.16;;;18.95
70389;BMP280;58659;49.050;8.530;2022-09-16T12:14:20;99483.66;;;19.01
70389;BMP280;58659;49.050;8.530;2022-09-16T12:16:55;99473.03;;;19.17
70389;BMP280;58659;49.050;8.530;2022-09-16T12:21:57;99475.25;;;19.47
70389;BMP280;58659;49.050;8.530;2022-09-16T12:24:26;99478.47;;;19.26
70389;BMP280;58659;49.050;8.530;2022-09-16T12:32:07;99448.34;;;22.25
70389;BMP280;58659;49.050;8.530;2022-09-16T12:34:40;99449.47;;;23.15
70389;BMP280;58659;49.050;8.530;2022-09-16T12:37:15;99444.75;;;23.60
70389;BMP280;58659;49.050;8.530;2022-09-16T12:39:45;99444.59;;;21.95
70389;BMP280;58659;49.050;8.530;2022-09-16T13:00:22;99430.84;;;19.51
70389;BMP280;58659;49.050;8.530;2022-09-16T13:02:57;99430.78;;;19.14
70389;BMP280;58659;49.050;8.530;2022-09-16T13:07:53;99431.50;;;18.37
70389;BMP280;58659;49.050;8.530;2022-09-16T13:10:28;99429.38;;;18.64
70389;BMP280;58659;49.050;8.530;2022-09-16T13:12:56;99432.47;;;19.62
70389;BMP280;58659;49.050;8.530;2022-09-16T13:17:48;99421.66;;;21.18
70389;BMP280;58659;49.050;8.530;2022-09-16T13:20:17;99435.19;;;21.63
70389;BMP280;58659;49.050;8.530;2022-09-16T13:25:29;99414.81;;;21.70
70389;BMP280;58659;49.050;8.530;2022-09-16T13:30:27;99406.81;;;21.30
70389;BMP280;58659;49.050;8.530;2022-09-16T13:37:43;99409.00;;;19.98
70389;BMP280;58659;49.050;8.530;2022-09-16T13:40:51;99409.31;;;19.37
70389;BMP280;58659;49.050;8.530;2022-09-16T13:45:33;99408.88;;;18.97
70389;BMP280;58659;49.050;8.530;2022-09-16T13:48:09;99399.31;;;18.26
70389;BMP280;58659;49.050;8.530;2022-09-16T13:50:35;99405.75;;;17.73
70389;BMP280;58659;49.050;8.530;2022-09-16T13:53:08;99403.34;;;17.43
70389;BMP280;58659;49.050;8.530;2022-09-16T13:55:34;99400.16;;;17.32
70389;BMP280;58659;49.050;8.530;2022-09-16T14:05:58;99401.88;;;21.41
70389;BMP280;58659;49.050;8.530;2022-09-16T14:13:37;99392.69;;;21.33
70389;BMP280;58659;49.050;8.530;2022-09-16T14:16:08;99393.63;;;21.17
70389;BMP280;58659;49.050;8.530;2022-09-16T14:18:34;99391.06;;;21.05
70389;BMP280;58659;49.050;8.530;2022-09-16T14:21:00;99393.53;;;20.77
70389;BMP280;58659;49.050;8.530;2022-09-16T14:23:26;99394.56;;;20.24
70389;BMP280;58659;49.050;8.530;2022-09-16T14:25:51;99392.06;;;19.83
70389;BMP280;58659;49.050;8.530;2022-09-16T14:28:18;99397.56;;;20.26
70389;BMP280;58659;49.050;8.530;2022-09-16T14:30:45;99395.91;;;20.28
70389;BMP280;58659;49.050;8.530;2022-09-16T14:33:10;99390.69;;;19.78
70389;BMP280;58659;49.050;8.530;2022-09-16T14:35:43;99393.22;;;19.94
70389;BMP280;58659;49.050;8.530;2022-09-16T14:38:11;99391.06;;;20.14
70389;BMP280;58659;49.050;8.530;2022-09-16T14:40:37;99391.06;;;20.83
70389;BMP280;58659;49.050;8.530;2022-09-16T14:43:04;99394.56;;;21.02
70389;BMP280;58659;49.050;8.530;2022-09-16T14:45:30;99387.31;;;21.24
70389;BMP280;58659;49.050;8.530;2022-09-16T14:47:56;99394.09;;;20.72
70389;BMP280;58659;49.050;8.530;2022-09-16T14:50:24;99393.47;;;20.34
70389;BMP280;58659;49.050;8.530;2022-09-16T14:53:00;99393.84;;;19.86
70389;BMP280;58659;49.050;8.530;2022-09-16T14:55:29;99397.56;;;19.50
70389;BMP280;58659;49.050;8.530;2022-09-16T14:57:55;99391.38;;;19.28
70389;BMP280;58659;49.050;8.530;2022-09-16T15:00:21;99401.06;;;19.06
70389;BMP280;58659;49.050;8.530;2022-09-16T15:05:26;99391.22;;;19.07
70389;BMP280;58659;49.050;8.530;2022-09-16T15:08:02;99400.63;;;18.95
70389;BMP280;58659;49.050;8.530;2022-09-16T15:10:28;99389.19;;;18.98
70389;BMP280;58659;49.050;8.530;2022-09-16T15:12:57;99392.25;;;18.68
70389;BMP280;58659;49.050;8.530;2022-09-16T15:16:07;99391.47;;;18.22
70389;BMP280;58659;49.050;8.530;2022-09-16T15:20:47;99395.38;;;17.82
70389;BMP280;58659;49.050;8.530;2022-09-16T15:23:16;99393.63;;;17.76
70389;BMP280;58659;49.050;8.530;2022-09-16T15:25:49;99398.69;;;17.86
70389;BMP280;58659;49.050;8.530;2022-09-16T15:28:16;99395.06;;;17.80
70389;BMP280;58659;49.050;8.530;2022-09-16T15:30:49;99398.69;;;17.70
70389;BMP280;58659;49.050;8.530;2022-09-16T15:36:11;99397.78;;;17.37
70389;BMP280;58659;49.050;8.530;2022-09-16T15:38:57;99399.91;;;17.26
70389;BMP280;58659;49.050;8.530;2022-09-16T15:41:22;99401.81;;;17.26
70389;BMP280;58659;49.050;8.530;2022-09-16T15:43:48;99401.66;;;17.33
70389;BMP280;58659;49.050;8.530;2022-09-16T15:46:17;99402.69;;;17.39
70389;BMP280;58659;49.050;8.530;2022-09-16T15:48:47;99404.31;;;17.52
70389;BMP280;58659;49.050;8.530;2022-09-16T15:53:44;99414.13;;;17.52
70389;BMP280;58659;49.050;8.530;2022-09-16T15:58:48;99439.09;;;17.28
70389;BMP280;58659;49.050;8.530;2022-09-16T16:06:08;99465.63;;;16.24
70389;BMP280;58659;49.050;8.530;2022-09-16T16:11:08;99443.69;;;15.70
70389;BMP280;58659;49.050;8.530;2022-09-16T16:13:34;99449.22;;;15.46
70389;BMP280;58659;49.050;8.530;2022-09-16T16:16:00;99446.34;;;15.33
70389;BMP280;58659;49.050;8.530;2022-09-16T16:18:28;99451.31;;;15.24
70389;BMP280;58659;49.050;8.530;2022-09-16T16:20:56;99449.47;;;15.21
70389;BMP280;58659;49.050;8.530;2022-09-16T16:23:21;99446.47;;;15.19
70389;BMP280;58659;49.050;8.530;2022-09-16T16:25:46;99453.25;;;15.20
70389;BMP280;58659;49.050;8.530;2022-09-16T16:28:12;99449.47;;;15.21
70389;BMP280;58659;49.050;8.530;2022-09-16T16:30:37;99450.97;;;15.22
70389;BMP280;58659;49.050;8.530;2022-09-16T16:33:05;99446.84;;;15.21
70389;BMP280;58659;49.050;8.530;2022-09-16T16:35:31;99444.22;;;15.21
70389;BMP280;58659;49.050;8.530;2022-09-16T16:37:56;99451.72;;;15.19
70389;BMP280;58659;49.050;8.530;2022-09-16T16:40:23;99447.97;;;15.20
70389;BMP280;58659;49.050;8.530;2022-09-16T16:42:48;99449.56;;;15.10
70389;BMP280;58659;49.050;8.530;2022-09-16T16:45:13;99450.38;;;15.04
70389;BMP280;58659;49.050;8.530;2022-09-16T16:47:39;99456.38;;;15.04
70389;BMP280;58659;49.050;8.530;2022-09-16T16:50:04;99453.72;;;15.08
70389;BMP280;58659;49.050;8.530;2022-09-16T16:52:30;99457.09;;;15.05
70389;BMP280;58659;49.050;8.530;2022-09-16T16:54:55;99466.91;;;15.01
70389;BMP280;58659;49.050;8.530;2022-09-16T16:57:20;99458.28;;;15.04
70389;BMP280;58659;49.050;8.530;2022-09-16T16:59:45;99467.63;;;15.05
70389;BMP280;58659;49.050;8.530;2022-09-16T17:02:10;99459.41;;;15.03
70389;BMP280;58659;49.050;8.530;2022-09-16T17:04:36;99467.72;;;14.98
70389;BMP280;58659;49.050;8.530;2022-09-16T17:07:01;99465.53;;;14.82
70389;BMP280;58659;49.050;8.530;2022-09-16T17:09:27;99475.34;;;14.78
70389;BMP280;58659;49.050;8.530;2022-09-16T17:11:54;99472.38;;;14.72
70389;BMP280;58659;49.050;8.530;2022-09-16T17:14:19;99484.81;;;14.68
70389;BMP280;58659;49.050;8.530;2022-09-16T17:16:45;99485.22;;;14.63
70389;BMP280;58659;49.050;8.530;2022-09-16T17:19:12;99484.84;;;14.61
70389;BMP280;58659;49.050;8.530;2022-09-16T17:21:38;99483.72;;;14.59
70389;BMP280;58659;49.050;8.530;2022-09-16T17:24:04;99488.22;;;14.58
70389;BMP280;58659;49.050;8.530;2022-09-16T17:26:29;99489.38;;;14.57
70389;BMP280;58659;49.050;8.530;2022-09-16T17:28:54;99499.53;;;14.55
70389;BMP280;58659;49.050;8.530;2022-09-16T17:31:24;99509.25;;;14.58
70389;BMP280;58659;49.050;8.530;2022-09-16T17:33:53;99510.78;;;14.63
70389;BMP280;58659;49.050;8.530;2022-09-16T17:36:18;99511.88;;;14.58
70389;BMP280;58659;49.050;8.530;2022-09-16T17:38:46;99504.41;;;14.57
70389;BMP280;58659;49.050;8.530;2022-09-16T17:41:12;99510.78;;;14.52
70389;BMP280;58659;49.050;8.530;2022-09-16T17:43:38;99500.00;;;14.36
70389;BMP280;58659;49.050;8.530;2022-09-16T17:46:04;99506.81;;;14.27
70389;BMP280;58659;49.050;8.530;2022-09-16T17:48:30;99500.47;;;14.06
70389;BMP280;58659;49.050;8.530;2022-09-16T17:50:55;99498.22;;;14.05
70389;BMP280;58659;49.050;8.530;2022-09-16T17:53:21;99500.47;;;14.06
70389;BMP280;58659;49.050;8.530;2022-09-16T17:55:46;99505.72;;;14.06
70389;BMP280;58659;49.050;8.530;2022-09-16T17:58:12;99509.47;;;14.05
70389;BMP280;58659;49.050;8.530;2022-09-16T18:00:39;99517.34;;;14.16
70389;BMP280;58659;49.050;8.530;2022-09-16T18:03:04;99521.84;;;14.12
70389;BMP280;58659;49.050;8.530;2022-09-16T18:05:33;99504.97;;;14.06
70389;BMP280;58659;49.050;8.530;2022-09-16T18:07:59;99515.53;;;13.88
70389;BMP280;58659;49.050;8.530;2022-09-16T18:10:24;99512.91;;;13.74